Time;durP1;ratioP1;P1;durP2;ratioP2;P2;SDS_P1;SDS_P2;PMS_P1;PMS_P2;Temp;Humidity;BMP_temperature;BMP_pressure;BME280_temperature;BME280_humidity;BME280_pressure;Samples;Min_cycle;Max_cycle;Signal;HPM_P1;HPM_P2
2021/01/19 00:01:07;;;;;;;15.10;2.00;;;3.80;99.90;;;;;;4973825;28;20680;-76
2021/01/19 00:03:32;;;;;;;14.65;3.00;;;3.80;99.90;;;;;;4972310;28;20126;-76
2021/01/19 00:05:58;;;;;;;19.35;1.88;;;3.90;99.90;;;;;;4973524;28;20026;-75
2021/01/19 00:08:24;;;;;;;8.50;1.10;;;3.90;99.90;;;;;;4973683;28;20093;-76
2021/01/19 00:10:50;;;;;;;8.48;1.67;;;3.90;99.90;;;;;;4973740;28;20117;-76
2021/01/19 00:13:20;;;;;;;15.93;2.00;;;3.90;99.90;;;;;;4988230;28;20468;-76
2021/01/19 00:15:49;;;;;;;11.80;1.85;;;3.90;99.90;;;;;;4968640;28;20704;-76
2021/01/19 00:18:15;;;;;;;25.38;2.72;;;4.00;99.90;;;;;;4954292;29;20038;-76
2021/01/19 00:20:41;;;;;;;8.27;1.90;;;3.90;99.90;;;;;;4953003;29;20094;-75
2021/01/19 00:23:07;;;;;;;9.40;1.85;;;3.90;99.90;;;;;;4967111;28;20487;-76
2021/01/19 00:25:35;;;;;;;12.82;1.73;;;3.80;99.90;;;;;;4973376;28;20041;-76
2021/01/19 00:28:01;;;;;;;10.73;1.77;;;3.80;99.90;;;;;;4973335;28;20106;-76
2021/01/19 00:30:26;;;;;;;8.32;2.15;;;3.70;99.90;;;;;;4973096;28;20034;-76
2021/01/19 00:32:52;;;;;;;15.05;2.10;;;3.70;99.90;;;;;;4973249;28;20034;-76
2021/01/19 00:35:17;;;;;;;20.52;2.47;;;3.70;99.90;;;;;;4971892;28;20030;-76
2021/01/19 00:37:43;;;;;;;5.05;2.22;;;3.70;99.90;;;;;;4973035;28;20387;-76
2021/01/19 00:40:09;;;;;;;10.93;2.55;;;3.70;99.90;;;;;;4973084;28;20039;-76
2021/01/19 00:42:35;;;;;;;14.13;2.10;;;3.70;99.90;;;;;;4973182;28;20034;-76
2021/01/19 00:45:01;;;;;;;17.38;3.05;;;3.80;99.90;;;;;;4971599;28;20038;-76
2021/01/19 00:47:26;;;;;;;9.77;2.58;;;3.70;99.90;;;;;;4971753;28;20451;-76
2021/01/19 00:49:52;;;;;;;16.60;3.08;;;3.70;99.90;;;;;;4973107;28;20041;-76
2021/01/19 00:52:17;;;;;;;25.85;4.18;;;3.70;99.90;;;;;;4972889;28;20506;-76
2021/01/19 00:54:43;;;;;;;31.23;4.88;;;3.70;99.90;;;;;;4972890;28;20510;-75
2021/01/19 00:57:10;;;;;;;37.42;6.03;;;3.70;99.90;;;;;;4971894;28;20534;-76
2021/01/19 00:59:36;;;;;;;47.53;7.85;;;3.80;99.90;;;;;;4972656;28;20391;-76
2021/01/19 01:02:02;;;;;;;36.65;9.45;;;3.80;99.90;;;;;;4972974;28;20122;-76
2021/01/19 01:04:28;;;;;;;42.38;8.85;;;3.80;99.90;;;;;;4972707;28;20030;-76
2021/01/19 01:06:54;;;;;;;97.10;12.15;;;3.90;99.90;;;;;;4972949;28;20534;-76
2021/01/19 01:09:20;;;;;;;67.68;11.23;;;3.90;99.90;;;;;;4968628;28;20031;-76
2021/01/19 01:11:45;;;;;;;62.67;12.15;;;4.00;99.90;;;;;;4969194;28;20039;-76
2021/01/19 01:14:12;;;;;;;83.75;12.93;;;4.00;99.90;;;;;;4972172;28;20475;-76
2021/01/19 01:16:39;;;;;;;77.85;14.45;;;4.10;99.90;;;;;;4971581;28;20070;-76
2021/01/19 01:19:06;;;;;;;81.03;13.75;;;4.20;99.90;;;;;;4972624;28;20027;-76
2021/01/19 01:21:35;;;;;;;80.47;16.35;;;4.20;99.90;;;;;;4972744;28;20026;-75
2021/01/19 01:24:01;;;;;;;96.95;15.52;;;4.20;99.90;;;;;;4971456;28;20035;-75
2021/01/19 01:26:26;;;;;;;96.13;12.77;;;4.20;99.90;;;;;;4972854;28;20041;-76
2021/01/19 01:28:52;;;;;;;86.68;14.20;;;4.30;99.90;;;;;;4972303;28;20121;-76
2021/01/19 01:31:19;;;;;;;71.43;12.52;;;4.30;99.90;;;;;;4972721;28;20038;-76
2021/01/19 01:33:46;;;;;;;77.00;12.50;;;4.30;99.90;;;;;;4972481;28;20486;-76
2021/01/19 01:36:11;;;;;;;85.10;11.55;;;4.30;99.90;;;;;;4972622;28;20030;-76
2021/01/19 01:38:37;;;;;;;74.00;10.77;;;4.30;99.90;;;;;;4972720;28;20023;-76
2021/01/19 01:41:03;;;;;;;74.68;11.10;;;4.30;99.90;;;;;;4972398;28;20581;-76
2021/01/19 01:43:28;;;;;;;80.68;10.40;;;4.30;99.90;;;;;;4971331;28;20031;-76
2021/01/19 01:45:54;;;;;;;51.95;7.40;;;4.30;99.90;;;;;;4972302;28;20035;-76
2021/01/19 01:48:19;;;;;;;67.60;9.43;;;4.30;99.90;;;;;;4972590;28;20054;-76
2021/01/19 01:50:45;;;;;;;72.43;9.40;;;4.20;99.90;;;;;;4975659;28;20058;-76
2021/01/19 01:53:11;;;;;;;50.42;6.90;;;4.20;99.90;;;;;;4976116;28;20062;-76
2021/01/19 01:55:39;;;;;;;53.85;8.73;;;4.20;99.90;;;;;;4991102;28;20026;-76
2021/01/19 01:58:05;;;;;;;66.07;8.90;;;4.20;99.90;;;;;;4976109;28;20077;-76
2021/01/19 02:00:30;;;;;;;43.60;6.78;;;4.20;99.90;;;;;;4975973;28;20027;-76
2021/01/19 02:02:57;;;;;;;59.22;8.93;;;4.20;99.90;;;;;;4974732;28;20034;-75
2021/01/19 02:05:25;;;;;;;39.30;6.70;;;4.20;99.90;;;;;;4974639;28;20031;-76
2021/01/19 02:08:02;;;;;;;72.57;9.02;;;4.20;99.90;;;;;;4976091;28;20034;-76
2021/01/19 02:10:46;;;;;;;57.90;7.38;;;4.20;99.90;;;;;;4975761;28;20080;-76
2021/01/19 02:13:23;;;;;;;71.18;7.95;;;4.20;99.90;;;;;;4974638;28;20030;-76
2021/01/19 02:15:57;;;;;;;63.33;7.60;;;4.20;99.90;;;;;;4975565;28;20027;-75
2021/01/19 02:18:37;;;;;;;;;;;4.10;99.90;;;;;;4976065;28;20038;-76
2021/01/19 02:21:33;;;;;;;44.42;7.78;;;4.10;99.90;;;;;;4975350;28;20394;-76
2021/01/19 02:24:12;;;;;;;52.17;8.07;;;4.10;99.90;;;;;;4975543;28;20038;-76
2021/01/19 02:27:02;;;;;;;63.63;7.85;;;4.10;99.90;;;;;;4974500;28;20026;-76
2021/01/19 02:29:46;;;;;;;59.28;8.35;;;4.00;99.90;;;;;;4975295;28;20023;-76
2021/01/19 02:32:25;;;;;;;57.53;8.07;;;4.00;99.90;;;;;;4975435;28;20042;-76
2021/01/19 02:35:10;;;;;;;54.67;9.07;;;4.00;99.90;;;;;;4975320;28;20034;-76
2021/01/19 02:37:54;;;;;;;49.05;7.50;;;4.00;99.90;;;;;;4956260;29;20031;-76
2021/01/19 02:40:21;;;;;;;40.70;7.78;;;3.80;99.90;;;;;;4958847;28;20019;-76
2021/01/19 02:43:09;;;;;;;55.80;9.80;;;3.80;99.90;;;;;;4975275;28;20035;-76
2021/01/19 02:45:35;;;;;;;54.85;10.68;;;3.70;99.90;;;;;;4974860;28;20029;-76
2021/01/19 02:48:02;;;;;;;47.75;7.45;;;3.80;99.90;;;;;;4975402;28;20050;-75
2021/01/19 02:50:28;;;;;;;63.08;7.90;;;3.80;99.90;;;;;;4974971;28;20038;-75
2021/01/19 02:52:54;;;;;;;67.95;9.35;;;3.90;99.90;;;;;;4975079;28;20038;-75
2021/01/19 02:55:20;;;;;;;60.50;8.98;;;3.80;99.90;;;;;;4974646;28;20556;-75
2021/01/19 02:57:57;;;;;;;44.90;8.13;;;3.90;99.90;;;;;;4975197;28;20113;-76
2021/01/19 03:01:05;;;;;;;56.58;8.45;;;3.90;99.90;;;;;;4974833;28;20023;-76
2021/01/19 03:03:37;;;;;;;55.17;8.38;;;3.90;99.90;;;;;;4973531;28;20045;-76
2021/01/19 03:06:10;;;;;;;71.95;11.05;;;3.90;99.90;;;;;;4974676;28;20085;-76
2021/01/19 03:08:39;;;;;;;45.58;9.32;;;3.80;99.90;;;;;;4973800;28;20070;-76
2021/01/19 03:11:06;;;;;;;52.45;10.07;;;3.80;99.90;;;;;;4973404;28;20038;-76
2021/01/19 03:13:32;;;;;;;73.75;9.88;;;3.80;99.90;;;;;;4974387;28;20034;-76
2021/01/19 03:16:08;;;;;;;72.40;11.98;;;3.70;99.90;;;;;;4974347;28;20027;-76
2021/01/19 03:18:35;;;;;;;62.08;10.43;;;3.80;99.90;;;;;;4973554;28;20029;-76
2021/01/19 03:21:05;;;;;;;70.05;11.63;;;3.80;99.90;;;;;;4974738;28;20387;-76
2021/01/19 03:23:31;;;;;;;43.47;10.57;;;3.80;99.90;;;;;;4974069;28;20665;-76
2021/01/19 03:25:58;;;;;;;70.32;13.07;;;3.80;99.90;;;;;;4974445;28;20035;-76
2021/01/19 03:28:23;;;;;;;55.70;12.40;;;3.80;99.90;;;;;;4974571;28;20082;-75
2021/01/19 03:30:49;;;;;;;55.65;11.65;;;3.80;99.90;;;;;;4969885;28;20051;-77
2021/01/19 03:33:14;;;;;;;73.63;14.27;;;3.70;99.90;;;;;;4955336;28;20035;-76
2021/01/19 03:35:40;;;;;;;57.60;14.65;;;3.60;99.90;;;;;;4954984;29;20027;-76
2021/01/19 03:38:06;;;;;;;67.28;15.75;;;3.70;99.90;;;;;;4955220;28;20068;-75
2021/01/19 03:40:32;;;;;;;63.70;16.35;;;3.70;99.90;;;;;;4974183;28;20365;-76
2021/01/19 03:42:58;;;;;;;69.63;17.70;;;3.70;99.90;;;;;;4973802;28;20077;-76
2021/01/19 03:45:23;;;;;;;97.13;19.42;;;3.70;99.90;;;;;;4973790;28;20054;-76
2021/01/19 03:47:49;;;;;;;80.82;20.08;;;3.70;99.90;;;;;;4972030;28;20484;-76
2021/01/19 03:50:14;;;;;;;76.75;19.70;;;3.70;99.90;;;;;;4973374;28;20031;-76
2021/01/19 03:52:40;;;;;;;85.28;22.13;;;3.70;99.90;;;;;;4974006;28;20027;-76
2021/01/19 03:55:06;;;;;;;76.45;21.92;;;3.60;99.90;;;;;;4973691;28;20458;-76
2021/01/19 03:57:32;;;;;;;82.15;22.35;;;3.60;99.90;;;;;;4974009;28;20062;-76
2021/01/19 03:59:57;;;;;;;99.68;26.77;;;3.60;99.90;;;;;;4973751;28;20506;-76
2021/01/19 04:02:23;;;;;;;91.28;26.88;;;3.60;99.90;;;;;;4972675;28;20034;-76
2021/01/19 04:04:49;;;;;;;92.75;30.10;;;3.60;99.90;;;;;;4973670;28;20038;-77
2021/01/19 04:07:14;;;;;;;100.47;32.25;;;3.60;99.90;;;;;;4973940;28;20019;-76
2021/01/19 04:09:40;;;;;;;98.82;31.90;;;3.60;99.90;;;;;;4973553;28;20042;-77
2021/01/19 04:12:06;;;;;;;107.15;34.50;;;3.60;99.90;;;;;;4973040;28;20133;-76
2021/01/19 04:14:31;;;;;;;102.50;36.13;;;3.60;99.90;;;;;;4972023;28;20097;-76
2021/01/19 04:16:57;;;;;;;121.45;36.72;;;3.60;99.90;;;;;;4972461;28;20023;-76
2021/01/19 04:19:22;;;;;;;127.43;42.28;;;3.60;99.90;;;;;;4973468;28;20030;-76
2021/01/19 04:21:48;;;;;;;118.18;38.45;;;3.60;99.90;;;;;;4973589;28;20023;-76
2021/01/19 04:24:13;;;;;;;126.22;41.17;;;3.60;99.90;;;;;;4972181;28;20122;-76
2021/01/19 04:26:39;;;;;;;126.00;38.90;;;3.60;99.90;;;;;;4972306;28;20061;-76
2021/01/19 04:29:04;;;;;;;96.63;38.28;;;3.60;99.90;;;;;;4972971;28;20038;-76
2021/01/19 04:31:30;;;;;;;125.22;40.22;;;3.60;99.90;;;;;;4973382;28;20030;-76
2021/01/19 04:33:55;;;;;;;115.88;40.75;;;3.60;99.90;;;;;;4971970;28;20486;-76
2021/01/19 04:36:21;;;;;;;106.07;40.67;;;3.60;99.90;;;;;;4972135;28;20026;-76
2021/01/19 04:38:47;;;;;;;118.00;43.67;;;3.60;99.90;;;;;;4973056;28;20022;-77
2021/01/19 04:41:13;;;;;;;102.57;41.28;;;3.60;99.90;;;;;;4988172;28;20031;-76
2021/01/19 04:43:40;;;;;;;114.07;42.58;;;3.60;99.90;;;;;;4972873;28;20038;-77
2021/01/19 04:46:07;;;;;;;113.72;41.22;;;3.60;99.90;;;;;;4973013;28;20052;-76
2021/01/19 04:48:33;;;;;;;94.88;40.78;;;3.60;99.90;;;;;;4973330;28;20038;-76
2021/01/19 04:51:03;;;;;;;110.65;43.38;;;3.60;99.90;;;;;;4972840;28;20073;-76
2021/01/19 04:53:34;;;;;;;107.78;43.13;;;3.60;99.90;;;;;;4973076;28;20031;-76
2021/01/19 04:56:03;;;;;;;97.60;42.90;;;3.60;99.90;;;;;;4971699;28;20043;-76
2021/01/19 04:58:31;;;;;;;107.57;40.33;;;3.60;99.90;;;;;;4973017;28;20058;-76
2021/01/19 05:01:07;;;;;;;108.57;40.60;;;3.60;99.90;;;;;;4968506;28;20031;-76
2021/01/19 05:03:55;;;;;;;101.97;39.60;;;3.70;99.90;;;;;;4953665;28;20039;-77
2021/01/19 05:06:57;;;;;;;83.78;36.67;;;3.60;99.90;;;;;;4953728;29;20091;-76
2021/01/19 05:09:35;;;;;;;93.53;38.38;;;3.70;99.90;;;;;;4962938;28;20050;-77
2021/01/19 05:12:03;;;;;;;94.88;38.30;;;3.70;99.90;;;;;;4972875;28;20039;-76
2021/01/19 05:14:38;;;;;;;89.03;38.50;;;3.70;99.90;;;;;;4971146;28;20035;-76
2021/01/19 05:17:04;;;;;;;84.35;35.63;;;3.70;99.90;;;;;;4972666;28;20525;-76
2021/01/19 05:19:30;;;;;;;98.00;36.63;;;3.70;99.90;;;;;;4953690;29;20170;-76
2021/01/19 05:21:56;;;;;;;103.63;40.08;;;3.80;99.90;;;;;;4953538;28;20095;-76
2021/01/19 05:24:22;;;;;;;88.07;37.25;;;3.80;99.90;;;;;;4954920;28;20572;-76
2021/01/19 05:26:48;;;;;;;91.25;39.92;;;3.80;99.90;;;;;;4963077;28;20531;-75
2021/01/19 05:29:13;;;;;;;81.70;37.55;;;3.80;99.90;;;;;;4976549;28;20030;-76
2021/01/19 05:31:39;;;;;;;75.97;32.42;;;3.80;99.90;;;;;;4976711;28;20398;-76
2021/01/19 05:34:10;;;;;;;70.10;31.67;;;3.80;99.90;;;;;;4976454;28;20589;-76
2021/01/19 05:36:38;;;;;;;68.75;30.52;;;3.90;99.90;;;;;;4976418;28;20027;-75
2021/01/19 05:39:06;;;;;;;60.85;28.33;;;3.90;99.90;;;;;;4976599;28;20105;-75
2021/01/19 05:41:47;;;;;;;60.15;27.80;;;3.90;99.90;;;;;;4975204;28;20454;-76
2021/01/19 05:44:28;;;;;;;58.78;28.65;;;3.90;99.90;;;;;;4976163;28;20034;-76
2021/01/19 05:47:03;;;;;;;66.90;27.05;;;3.90;99.90;;;;;;4976548;28;20027;-75
2021/01/19 05:49:38;;;;;;;53.83;26.88;;;3.80;99.90;;;;;;4976478;28;20022;-76
2021/01/19 05:52:14;;;;;;;55.33;26.08;;;3.90;99.90;;;;;;4974978;28;20186;-76
2021/01/19 05:54:46;;;;;;;58.60;26.50;;;3.90;99.90;;;;;;4974570;28;20030;-76
2021/01/19 05:57:19;;;;;;;57.45;24.15;;;3.90;99.90;;;;;;4976147;28;20034;-76
2021/01/19 05:59:55;;;;;;;68.88;27.00;;;3.90;99.90;;;;;;4976190;28;20029;-76
2021/01/19 06:02:34;;;;;;;53.08;25.27;;;3.90;99.90;;;;;;4976498;28;20403;-77
2021/01/19 06:05:10;;;;;;;53.05;25.02;;;3.90;99.90;;;;;;4975800;28;20642;-76
2021/01/19 06:07:38;;;;;;;53.08;24.33;;;3.90;99.90;;;;;;4974897;28;20384;-76
2021/01/19 06:10:14;;;;;;;45.45;23.13;;;3.90;99.90;;;;;;4974742;28;20034;-76
2021/01/19 06:12:40;;;;;;;57.55;22.88;;;3.90;99.90;;;;;;4975595;28;20047;-76
2021/01/19 06:15:07;;;;;;;41.42;21.58;;;3.90;99.90;;;;;;4974214;28;20027;-76
2021/01/19 06:17:33;;;;;;;42.83;20.38;;;3.90;99.90;;;;;;4974655;28;20101;-76
2021/01/19 06:19:59;;;;;;;41.03;19.75;;;3.90;99.90;;;;;;4975879;28;20432;-76
2021/01/19 06:22:27;;;;;;;42.30;20.88;;;3.90;99.90;;;;;;4974184;28;20085;-76
2021/01/19 06:24:57;;;;;;;41.95;21.45;;;3.90;99.90;;;;;;4975614;28;20031;-76
2021/01/19 06:27:22;;;;;;;48.53;21.77;;;3.80;99.90;;;;;;4975666;28;20030;-76
2021/01/19 06:30:01;;;;;;;49.47;20.73;;;3.80;99.90;;;;;;4974278;28;20037;-76
2021/01/19 06:32:28;;;;;;;37.17;20.55;;;3.80;99.90;;;;;;4975610;28;20022;-77
2021/01/19 06:34:54;;;;;;;41.60;21.58;;;3.80;99.90;;;;;;4974939;28;20037;-76
2021/01/19 06:37:25;;;;;;;44.78;20.98;;;3.70;99.90;;;;;;4975579;28;20030;-76
2021/01/19 06:39:59;;;;;;;41.00;21.38;;;3.80;99.90;;;;;;4970913;28;20039;-76
2021/01/19 06:42:29;;;;;;;43.80;21.90;;;3.70;99.90;;;;;;4957786;28;20031;-76
2021/01/19 06:45:00;;;;;;;44.22;22.33;;;3.70;99.90;;;;;;4975176;28;20030;-76
2021/01/19 06:47:26;;;;;;;47.38;25.48;;;3.70;99.90;;;;;;4990452;28;20443;-76
2021/01/19 06:49:53;;;;;;;44.83;22.35;;;3.70;99.90;;;;;;4975094;28;20039;-76
2021/01/19 06:52:20;;;;;;;51.08;25.73;;;3.70;99.90;;;;;;4975267;28;20070;-76
2021/01/19 06:54:54;;;;;;;55.75;24.88;;;3.70;99.90;;;;;;4974638;28;20026;-76
2021/01/19 06:57:28;;;;;;;50.22;23.77;;;3.70;99.90;;;;;;4974029;28;20022;-76
2021/01/19 07:00:07;;;;;;;55.85;26.10;;;3.70;99.90;;;;;;4974947;28;20027;-76
2021/01/19 07:02:38;;;;;;;53.20;23.95;;;3.70;99.90;;;;;;4975080;28;20037;-76
2021/01/19 07:05:11;;;;;;;46.17;22.40;;;3.70;99.90;;;;;;4974737;28;20031;-76
2021/01/19 07:07:44;;;;;;;47.75;24.25;;;3.70;99.90;;;;;;4973857;28;20050;-75
2021/01/19 07:10:12;;;;;;;56.53;23.55;;;3.70;99.90;;;;;;4973440;28;20027;-76
2021/01/19 07:13:06;;;;;;;48.15;21.88;;;3.70;99.90;;;;;;4973453;28;20035;-76
2021/01/19 07:15:50;;;;;;;;;;;3.80;99.90;;;;;;4973677;28;20072;-76
2021/01/19 07:18:45;;;;;;;40.13;21.08;;;3.80;99.90;;;;;;4974852;28;19906;-76
2021/01/19 07:21:15;;;;;;;34.95;18.60;;;3.90;99.90;;;;;;4974617;28;20507;-76
2021/01/19 07:23:47;;;;;;;32.92;18.33;;;3.90;99.90;;;;;;4973037;28;20061;-76
2021/01/19 07:26:22;;;;;;;38.85;18.65;;;3.90;99.90;;;;;;4973384;28;20025;-76
2021/01/19 07:28:50;;;;;;;34.80;18.52;;;3.90;99.90;;;;;;4974562;28;20117;-76
2021/01/19 07:31:20;;;;;;;32.72;16.52;;;4.00;99.90;;;;;;4974388;28;20034;-76
2021/01/19 07:33:52;;;;;;;29.65;15.88;;;4.00;99.90;;;;;;4973041;28;20031;-76
2021/01/19 07:36:27;;;;;;;32.42;15.88;;;4.00;99.90;;;;;;4973299;28;20034;-76
2021/01/19 07:38:53;;;;;;;33.65;15.82;;;4.10;99.90;;;;;;4989392;28;20097;-76
2021/01/19 07:41:33;;;;;;;28.77;15.35;;;4.00;99.90;;;;;;4973694;28;20038;-76
2021/01/19 07:43:59;;;;;;;28.52;16.13;;;4.10;99.90;;;;;;4974085;28;20030;-76
2021/01/19 07:46:29;;;;;;;27.98;16.27;;;4.10;99.90;;;;;;4973628;28;20430;-76
2021/01/19 07:49:08;;;;;;;33.05;16.75;;;4.10;99.90;;;;;;4974083;28;20030;-75
2021/01/19 07:51:39;;;;;;;27.25;16.73;;;4.10;99.90;;;;;;4973809;28;20039;-75
2021/01/19 07:54:05;;;;;;;27.80;16.08;;;4.00;99.90;;;;;;4972570;28;20026;-76
2021/01/19 07:56:32;;;;;;;31.08;17.77;;;4.00;99.90;;;;;;4972888;28;20113;-76
2021/01/19 07:58:59;;;;;;;29.45;16.05;;;4.00;99.90;;;;;;4973916;28;20023;-76
2021/01/19 08:01:32;;;;;;;30.67;16.05;;;4.00;99.90;;;;;;4972111;28;20023;-76
2021/01/19 08:04:14;;;;;;;27.75;16.77;;;4.00;99.90;;;;;;4973467;28;20089;-76
2021/01/19 08:06:42;;;;;;;29.55;17.30;;;4.00;99.90;;;;;;4973719;28;20033;-76
2021/01/19 08:09:08;;;;;;;28.05;15.95;;;4.00;99.90;;;;;;4972465;28;20439;-77
2021/01/19 08:11:34;;;;;;;28.77;16.90;;;4.10;99.90;;;;;;4965320;28;20109;-76
2021/01/19 08:14:00;;;;;;;27.38;16.65;;;4.10;99.90;;;;;;4977977;28;20023;-77
2021/01/19 08:16:28;;;;;;;27.98;17.17;;;4.00;99.90;;;;;;4973370;28;20094;-77
2021/01/19 08:19:14;;;;;;;29.50;17.00;;;4.10;99.90;;;;;;4973422;28;20431;-77
2021/01/19 08:21:51;;;;;;;29.92;17.08;;;4.10;99.90;;;;;;4972956;28;20054;-77
2021/01/19 08:24:24;;;;;;;26.98;16.33;;;4.10;99.90;;;;;;4973273;28;20602;-77
2021/01/19 08:26:51;;;;;;;23.40;14.63;;;4.10;99.90;;;;;;4968831;28;20031;-77
2021/01/19 08:29:21;;;;;;;30.77;16.40;;;4.10;99.90;;;;;;4958012;28;20039;-77
2021/01/19 08:32:02;;;;;;;23.42;15.75;;;4.10;99.90;;;;;;4972078;28;20057;-77
2021/01/19 08:34:30;;;;;;;26.08;14.88;;;4.10;99.90;;;;;;4973022;28;20494;-77
2021/01/19 08:36:56;;;;;;;24.52;16.70;;;4.10;99.90;;;;;;4972974;28;20074;-77
2021/01/19 08:39:22;;;;;;;25.02;16.10;;;4.10;99.90;;;;;;4973433;28;20206;-77
2021/01/19 08:41:50;;;;;;;26.20;16.33;;;4.10;99.90;;;;;;4973142;28;20105;-77
2021/01/19 08:44:16;;;;;;;25.08;16.42;;;4.10;99.90;;;;;;4972788;28;20113;-76
2021/01/19 08:46:42;;;;;;;31.40;15.13;;;4.10;99.90;;;;;;4972066;28;20070;-77
2021/01/19 08:49:13;;;;;;;25.73;15.02;;;4.10;99.90;;;;;;4973319;28;20458;-78
2021/01/19 08:51:45;;;;;;;25.67;15.40;;;4.10;99.90;;;;;;4973020;28;20721;-78
2021/01/19 08:54:11;;;;;;;29.38;15.25;;;4.10;99.90;;;;;;4972845;28;20114;-79
2021/01/19 08:56:44;;;;;;;28.33;14.77;;;4.10;99.90;;;;;;4971608;28;20106;-77
2021/01/19 08:59:18;;;;;;;21.70;13.88;;;4.10;99.90;;;;;;4971599;28;20054;-78
2021/01/19 09:01:51;;;;;;;24.00;14.95;;;4.10;99.90;;;;;;4971433;28;20460;-78
2021/01/19 09:04:24;;;;;;;21.98;13.95;;;4.10;99.90;;;;;;4972798;28;20042;-78
2021/01/19 09:06:51;;;;;;;22.20;12.52;;;4.10;99.90;;;;;;4967399;28;20407;-77
2021/01/19 09:09:21;;;;;;;16.52;10.55;;;4.10;99.90;;;;;;4967958;28;20027;-78
2021/01/19 09:11:47;;;;;;;16.13;11.73;;;4.20;99.90;;;;;;4965026;28;20040;-77
2021/01/19 09:14:13;;;;;;;23.13;11.77;;;4.20;99.90;;;;;;4960893;28;20026;-76
2021/01/19 09:16:39;;;;;;;16.02;11.27;;;4.20;99.90;;;;;;4966849;28;20086;-78
2021/01/19 09:19:10;;;;;;;20.77;12.27;;;4.20;99.90;;;;;;4952042;29;20055;-78
2021/01/19 09:21:39;;;;;;;17.08;11.55;;;4.20;99.90;;;;;;4951918;28;20387;-78
2021/01/19 09:24:15;;;;;;;21.00;11.77;;;4.20;99.90;;;;;;4953218;28;20506;-77
2021/01/19 09:27:01;;;;;;;22.65;12.05;;;4.20;99.90;;;;;;4968663;28;20242;-78
2021/01/19 09:29:31;;;;;;;27.33;12.38;;;4.20;99.90;;;;;;4969458;28;20023;-78
2021/01/19 09:31:58;;;;;;;18.45;12.45;;;4.30;99.90;;;;;;4972022;28;20023;-78
2021/01/19 09:34:26;;;;;;;26.00;12.73;;;4.20;99.90;;;;;;4970838;28;20066;-78
2021/01/19 09:36:52;;;;;;;19.55;12.05;;;4.20;99.90;;;;;;4971864;28;20035;-78
2021/01/19 09:39:25;;;;;;;19.45;11.77;;;4.20;99.90;;;;;;4972096;28;20026;-78
2021/01/19 09:41:53;;;;;;;16.15;11.25;;;4.20;99.90;;;;;;4970941;28;20406;-78
2021/01/19 09:44:19;;;;;;;18.98;11.38;;;4.30;99.90;;;;;;4967493;28;20043;-78
2021/01/19 09:46:46;;;;;;;17.45;11.75;;;4.30;99.90;;;;;;4953112;28;20043;-78
2021/01/19 09:49:16;;;;;;;20.80;10.80;;;4.20;99.90;;;;;;4952875;29;20066;-78
2021/01/19 09:51:42;;;;;;;20.20;12.38;;;4.30;99.90;;;;;;4952727;28;20035;-78
2021/01/19 09:54:08;;;;;;;17.08;10.35;;;4.30;99.90;;;;;;4952692;29;20130;-78
2021/01/19 09:56:33;;;;;;;25.75;11.88;;;4.40;99.90;;;;;;4971115;28;20027;-78
2021/01/19 09:59:04;;;;;;;19.33;11.30;;;4.30;99.90;;;;;;4972223;28;20573;-78
2021/01/19 10:01:30;;;;;;;22.60;11.98;;;4.30;99.90;;;;;;4971776;28;20514;-78
2021/01/19 10:03:56;;;;;;;15.13;10.73;;;4.30;99.90;;;;;;4991620;28;20030;-78
2021/01/19 10:06:24;;;;;;;24.75;10.95;;;4.40;99.90;;;;;;4977095;28;20088;-78
2021/01/19 10:08:52;;;;;;;15.40;10.23;;;4.40;99.90;;;;;;4972246;28;20438;-78
2021/01/19 10:11:30;;;;;;;14.20;10.18;;;4.40;99.90;;;;;;4974695;28;20427;-79
2021/01/19 10:13:56;;;;;;;15.27;9.00;;;4.40;99.90;;;;;;4975310;28;20035;-78
2021/01/19 10:16:29;;;;;;;19.38;10.70;;;4.40;99.90;;;;;;4975175;28;20038;-78
2021/01/19 10:18:55;;;;;;;17.30;11.25;;;4.40;99.90;;;;;;4974341;28;20114;-79
2021/01/19 10:21:30;;;;;;;15.77;10.48;;;4.40;99.90;;;;;;4974418;28;20050;-78
2021/01/19 10:23:56;;;;;;;18.60;12.45;;;4.40;99.90;;;;;;4975509;28;20121;-79
2021/01/19 10:26:28;;;;;;;16.95;11.38;;;4.40;99.90;;;;;;4975569;28;20117;-78
2021/01/19 10:28:56;;;;;;;19.20;11.35;;;4.40;99.90;;;;;;4975493;28;20027;-78
2021/01/19 10:31:24;;;;;;;20.48;11.85;;;4.40;99.90;;;;;;4975499;28;20466;-78
2021/01/19 10:33:58;;;;;;;18.23;11.68;;;4.50;99.90;;;;;;4974986;28;20085;-78
2021/01/19 10:36:25;;;;;;;18.85;11.50;;;4.40;99.90;;;;;;4975627;28;20019;-78
2021/01/19 10:38:51;;;;;;;23.95;10.80;;;4.50;99.90;;;;;;4974172;28;20038;-78
2021/01/19 10:41:27;;;;;;;17.90;12.68;;;4.50;99.90;;;;;;4974298;28;20113;-79
2021/01/19 10:43:54;;;;;;;21.02;12.77;;;4.50;99.90;;;;;;4968858;28;20027;-77
2021/01/19 10:46:26;;;;;;;14.85;11.10;;;4.50;99.90;;;;;;4970652;28;20098;-77
2021/01/19 10:49:11;;;;;;;13.43;10.80;;;4.50;99.90;;;;;;4956004;28;20224;-77
2021/01/19 10:51:38;;;;;;;16.08;11.13;;;4.50;99.90;;;;;;4968890;28;20129;-78
2021/01/19 10:54:10;;;;;;;14.45;11.15;;;4.50;99.90;;;;;;4974797;28;20057;-78
2021/01/19 10:56:38;;;;;;;15.73;12.20;;;4.50;99.90;;;;;;4975024;28;20046;-77
2021/01/19 10:59:04;;;;;;;13.88;11.00;;;4.50;99.90;;;;;;4982474;28;20277;-78
2021/01/19 11:01:32;;;;;;;23.50;12.57;;;4.50;99.90;;;;;;4974966;28;20027;-78
2021/01/19 11:03:57;;;;;;;18.15;11.43;;;4.50;99.90;;;;;;4974705;28;20030;-76
2021/01/19 11:06:30;;;;;;;18.52;12.25;;;4.60;99.90;;;;;;4973497;28;20031;-77
2021/01/19 11:08:55;;;;;;;17.17;11.18;;;4.60;99.90;;;;;;4974673;28;20368;-80
2021/01/19 11:11:21;;;;;;;18.23;12.02;;;4.60;99.90;;;;;;4972990;28;20045;-78
2021/01/19 11:13:46;;;;;;;16.63;10.55;;;4.60;99.90;;;;;;4974230;28;20499;-78
2021/01/19 11:16:12;;;;;;;17.75;11.45;;;4.60;99.90;;;;;;4969577;28;20023;-78
2021/01/19 11:18:37;;;;;;;15.50;10.15;;;4.60;99.90;;;;;;4955455;29;20027;-79
2021/01/19 11:21:06;;;;;;;16.40;10.90;;;4.60;99.90;;;;;;4964947;28;20117;-83
2021/01/19 11:23:32;;;;;;;15.25;10.75;;;4.60;99.90;;;;;;4972642;28;20058;-78
2021/01/19 11:25:58;;;;;;;15.82;11.23;;;4.60;99.90;;;;;;4974252;28;20023;-79
2021/01/19 11:28:24;;;;;;;15.10;10.13;;;4.60;99.90;;;;;;4974399;28;20487;-80
2021/01/19 11:30:51;;;;;;;19.05;11.23;;;4.60;99.90;;;;;;4981002;28;20073;-80
2021/01/19 11:33:17;;;;;;;19.05;11.60;;;4.60;99.90;;;;;;4992370;28;20026;-80
2021/01/19 11:35:42;;;;;;;12.75;9.60;;;4.60;99.90;;;;;;4992175;28;20095;-79
2021/01/19 11:38:08;;;;;;;16.75;11.48;;;4.60;99.90;;;;;;4988917;28;20484;-80
2021/01/19 11:40:34;;;;;;;19.65;11.00;;;4.60;99.90;;;;;;4972576;28;20125;-79
2021/01/19 11:42:59;;;;;;;14.85;10.98;;;4.60;99.90;;;;;;4974200;28;20054;-79
2021/01/19 11:45:25;;;;;;;15.80;11.20;;;4.60;99.90;;;;;;4973514;28;20034;-80
2021/01/19 11:47:51;;;;;;;17.55;10.45;;;4.60;99.90;;;;;;4972824;28;20582;-80
2021/01/19 11:50:17;;;;;;;16.25;12.07;;;4.60;99.90;;;;;;4973925;28;20118;-79
2021/01/19 11:52:42;;;;;;;16.80;10.73;;;4.60;99.90;;;;;;4973024;28;20527;-79
2021/01/19 11:55:08;;;;;;;17.48;11.25;;;4.60;99.90;;;;;;4972094;28;20065;-80
2021/01/19 11:57:38;;;;;;;14.25;9.85;;;4.60;99.90;;;;;;4973965;28;20033;-79
2021/01/19 12:00:09;;;;;;;16.30;10.00;;;4.60;99.90;;;;;;4973597;28;20130;-79
2021/01/19 12:02:34;;;;;;;20.00;11.50;;;4.60;99.90;;;;;;4971542;28;20487;-80
2021/01/19 12:05:01;;;;;;;14.13;10.43;;;4.60;99.90;;;;;;4972205;28;20042;-79
2021/01/19 12:07:27;;;;;;;15.05;11.18;;;4.60;99.90;;;;;;4973762;28;20033;-80
2021/01/19 12:09:52;;;;;;;16.08;11.00;;;4.60;99.90;;;;;;4973224;28;20031;-80
2021/01/19 12:12:18;;;;;;;18.40;12.40;;;4.60;99.90;;;;;;4973458;28;20034;-79
2021/01/19 12:14:44;;;;;;;14.90;11.55;;;4.70;99.90;;;;;;4968592;28;20031;-79
2021/01/19 12:17:10;;;;;;;14.02;10.45;;;4.70;99.90;;;;;;4954303;29;20023;-79
2021/01/19 12:19:35;;;;;;;14.40;11.02;;;4.70;99.90;;;;;;4954149;29;20431;-79
2021/01/19 12:22:01;;;;;;;14.27;10.90;;;4.70;99.90;;;;;;4972780;28;20115;-80
2021/01/19 12:24:27;;;;;;;12.52;9.82;;;4.70;99.90;;;;;;4971941;28;20410;-79
2021/01/19 12:26:57;;;;;;;14.10;10.73;;;4.70;99.90;;;;;;4972361;28;20489;-79
2021/01/19 12:29:25;;;;;;;17.60;10.73;;;4.70;99.90;;;;;;4973320;28;20516;-79
2021/01/19 12:31:50;;;;;;;13.80;9.55;;;4.70;99.90;;;;;;4973357;28;20031;-80
2021/01/19 12:34:18;;;;;;;15.18;10.23;;;4.70;99.90;;;;;;4971487;28;20038;-79
2021/01/19 12:36:44;;;;;;;13.93;10.60;;;4.70;99.90;;;;;;4967427;28;20031;-79
2021/01/19 12:39:10;;;;;;;12.55;9.40;;;4.80;99.90;;;;;;4973098;28;20029;-80
2021/01/19 12:41:36;;;;;;;12.85;9.32;;;4.80;99.90;;;;;;4972652;28;20022;-79
2021/01/19 12:44:03;;;;;;;12.65;9.52;;;4.80;99.90;;;;;;4972995;28;20487;-79
2021/01/19 12:46:28;;;;;;;13.85;10.05;;;4.90;99.90;;;;;;4973081;28;20027;-79
2021/01/19 12:48:54;;;;;;;14.40;9.27;;;4.80;99.90;;;;;;4971818;28;20050;-79